createdAt,value
2018-05-31T00:00:10.629Z,0.00
2018-05-31T00:01:10.626Z,0.00
2018-05-31T00:02:10.621Z,0.00
2018-05-31T00:03:10.617Z,0.00
2018-05-31T00:04:10.616Z,0.00
2018-05-31T00:05:10.617Z,0.00
2018-05-31T00:06:10.606Z,0.00
2018-05-31T00:07:10.603Z,0.00
2018-05-31T00:08:10.600Z,0.00
2018-05-31T00:09:10.597Z,0.00
2018-05-31T00:10:10.594Z,0.00
2018-05-31T00:11:10.590Z,0.00
2018-05-31T00:12:10.586Z,0.00
2018-05-31T00:13:10.583Z,0.00
2018-05-31T00:14:10.582Z,0.00
2018-05-31T00:15:10.576Z,0.00
2018-05-31T00:16:10.578Z,0.00
2018-05-31T00:17:10.569Z,0.00
2018-05-31T00:18:10.565Z,0.00
2018-05-31T00:19:10.562Z,0.00
2018-05-31T00:20:10.557Z,0.00
2018-05-31T00:21:10.556Z,0.00
2018-05-31T00:22:10.551Z,0.00
2018-05-31T00:23:10.548Z,0.00
2018-05-31T00:24:10.544Z,0.00
2018-05-31T00:25:10.565Z,0.00
2018-05-31T00:26:10.536Z,0.00
2018-05-31T00:27:10.535Z,0.00
2018-05-31T00:28:10.532Z,0.00
2018-05-31T00:29:10.529Z,0.00
2018-05-31T00:30:10.523Z,0.00
2018-05-31T00:31:10.519Z,0.00
2018-05-31T00:32:10.517Z,0.00
2018-05-31T00:33:10.513Z,0.00
2018-05-31T00:34:10.519Z,0.00
2018-05-31T00:35:10.512Z,0.00
2018-05-31T00:36:10.524Z,0.00
2018-05-31T00:37:10.498Z,0.00
2018-05-31T00:38:10.494Z,0.00
2018-05-31T00:39:10.496Z,0.00
2018-05-31T00:40:10.489Z,0.00
2018-05-31T00:41:10.485Z,0.00
2018-05-31T00:42:10.481Z,0.00
2018-05-31T00:43:10.478Z,0.00
2018-05-31T00:44:10.474Z,0.00
2018-05-31T00:45:10.487Z,0.00
2018-05-31T00:46:10.467Z,0.00
2018-05-31T00:47:10.464Z,0.00
2018-05-31T00:48:10.461Z,0.00
2018-05-31T00:49:10.455Z,0.00
2018-05-31T00:50:10.453Z,0.00
2018-05-31T00:51:10.449Z,0.00
2018-05-31T00:52:10.448Z,0.00
2018-05-31T00:53:10.443Z,0.00
2018-05-31T00:54:10.438Z,0.00
2018-05-31T00:55:10.435Z,0.00
2018-05-31T00:56:10.431Z,0.00
2018-05-31T00:57:10.432Z,0.00
2018-05-31T00:58:10.422Z,0.00
2018-05-31T00:59:10.420Z,0.00
2018-05-31T01:00:10.419Z,0.00
2018-05-31T01:01:10.414Z,0.00
2018-05-31T01:02:10.411Z,0.00
2018-05-31T01:03:10.408Z,0.00
2018-05-31T01:04:10.425Z,0.00
2018-05-31T01:05:10.405Z,0.00
2018-05-31T01:06:10.402Z,0.00
2018-05-31T01:07:10.403Z,0.00
2018-05-31T01:08:10.388Z,0.00
2018-05-31T01:09:10.387Z,0.00
2018-05-31T01:10:10.379Z,0.00
2018-05-31T01:11:10.378Z,0.00
2018-05-31T01:12:10.516Z,0.00
2018-05-31T01:13:10.394Z,0.00
2018-05-31T01:14:10.367Z,0.00
2018-05-31T01:15:10.364Z,0.00
2018-05-31T01:16:10.360Z,0.00
2018-05-31T01:17:10.354Z,0.00
2018-05-31T01:18:10.377Z,0.00
2018-05-31T01:19:10.350Z,0.00
2018-05-31T01:20:10.345Z,0.00
2018-05-31T01:21:10.343Z,0.00
2018-05-31T01:22:10.339Z,0.00
2018-05-31T01:23:10.335Z,0.00
2018-05-31T01:24:10.334Z,0.00
2018-05-31T01:25:10.327Z,0.00
2018-05-31T01:26:10.324Z,0.00
2018-05-31T01:27:10.320Z,0.00
2018-05-31T01:28:10.318Z,0.00
2018-05-31T01:29:10.314Z,0.00
2018-05-31T01:30:10.309Z,0.00
2018-05-31T01:31:10.307Z,0.00
2018-05-31T01:32:10.304Z,0.00
2018-05-31T01:33:10.301Z,0.00
2018-05-31T01:34:10.294Z,0.00
2018-05-31T01:35:10.295Z,0.00
2018-05-31T01:36:10.343Z,0.00
2018-05-31T01:37:10.331Z,0.00
2018-05-31T01:38:10.279Z,0.00
2018-05-31T01:39:10.278Z,0.00
2018-05-31T01:40:10.278Z,0.00
2018-05-31T01:41:10.271Z,0.00
2018-05-31T01:42:10.265Z,0.00
2018-05-31T01:43:10.269Z,0.00
2018-05-31T01:44:10.263Z,0.00
2018-05-31T01:45:10.257Z,0.00
2018-05-31T01:46:10.253Z,0.00
2018-05-31T01:47:10.249Z,0.00
2018-05-31T01:48:10.244Z,0.00
2018-05-31T01:49:10.241Z,0.00
2018-05-31T01:50:10.296Z,0.00
2018-05-31T01:51:10.235Z,0.00
2018-05-31T01:52:10.233Z,0.00
2018-05-31T01:53:10.226Z,0.00
2018-05-31T01:54:10.226Z,0.00
2018-05-31T01:55:10.221Z,0.00
2018-05-31T01:56:10.217Z,0.00
2018-05-31T01:57:10.211Z,0.00
2018-05-31T01:58:10.233Z,0.00
2018-05-31T01:59:10.206Z,0.00
2018-05-31T02:00:10.205Z,0.00
2018-05-31T02:01:10.196Z,0.00
2018-05-31T02:02:10.195Z,0.00
2018-05-31T02:03:10.189Z,0.00
2018-05-31T02:04:10.184Z,0.00
2018-05-31T02:05:10.183Z,0.00
2018-05-31T02:06:10.905Z,0.00
2018-05-31T02:07:10.173Z,0.00
2018-05-31T02:08:10.172Z,0.00
2018-05-31T02:09:10.167Z,0.00
2018-05-31T02:10:10.162Z,0.00
2018-05-31T02:11:10.159Z,0.00
2018-05-31T02:12:10.154Z,0.00
2018-05-31T02:13:10.151Z,0.00
2018-05-31T02:14:10.146Z,0.00
2018-05-31T02:15:10.173Z,0.00
2018-05-31T02:16:10.140Z,0.00
2018-05-31T02:17:10.320Z,0.00
2018-05-31T02:18:10.131Z,0.00
2018-05-31T02:19:10.128Z,0.00
2018-05-31T02:20:10.126Z,0.00
2018-05-31T02:21:10.126Z,0.00
2018-05-31T02:22:10.116Z,0.00
2018-05-31T02:23:10.112Z,0.00
2018-05-31T02:24:10.109Z,0.00
2018-05-31T02:25:10.108Z,0.00
2018-05-31T02:26:10.100Z,0.00
2018-05-31T02:27:10.103Z,0.00
2018-05-31T02:28:10.093Z,0.00
2018-05-31T02:29:10.089Z,0.00
2018-05-31T02:30:10.084Z,0.00
2018-05-31T02:31:10.080Z,0.00
2018-05-31T02:32:10.080Z,0.00
2018-05-31T02:33:10.073Z,0.00
2018-05-31T02:34:10.071Z,0.00
2018-05-31T02:35:10.065Z,0.00
2018-05-31T02:36:10.063Z,0.00
2018-05-31T02:37:10.060Z,0.00
2018-05-31T02:38:10.073Z,0.00
2018-05-31T02:39:10.051Z,0.00
2018-05-31T02:40:10.048Z,0.00
2018-05-31T02:41:10.050Z,0.00
2018-05-31T02:42:10.041Z,0.00
2018-05-31T02:43:10.038Z,0.00
2018-05-31T02:44:10.033Z,0.00
2018-05-31T02:45:10.028Z,0.00
2018-05-31T02:46:10.024Z,0.00
2018-05-31T02:47:10.021Z,0.00
2018-05-31T02:48:10.016Z,0.00
2018-05-31T02:49:10.014Z,0.00
2018-05-31T02:50:10.010Z,0.00
2018-05-31T02:51:10.007Z,0.00
2018-05-31T02:52:10.004Z,0.00
2018-05-31T02:53:10.000Z,0.00
2018-05-31T02:54:09.995Z,0.00
2018-05-31T02:55:09.991Z,0.00
2018-05-31T02:56:09.988Z,0.00
2018-05-31T02:57:09.984Z,0.00
2018-05-31T02:58:09.980Z,0.00
2018-05-31T02:59:09.976Z,0.00
2018-05-31T03:00:09.972Z,0.00
2018-05-31T03:01:09.968Z,0.00
2018-05-31T03:02:09.967Z,0.00
2018-05-31T03:03:09.963Z,0.00
2018-05-31T03:04:09.957Z,0.00
2018-05-31T03:05:09.954Z,0.00
2018-05-31T03:06:09.948Z,0.00
2018-05-31T03:07:09.945Z,0.00
2018-05-31T03:08:09.944Z,0.00
2018-05-31T03:09:09.937Z,0.00
2018-05-31T03:10:09.932Z,0.00
2018-05-31T03:11:09.932Z,0.00
2018-05-31T03:12:09.927Z,0.00
2018-05-31T03:13:09.922Z,0.00
2018-05-31T03:14:09.919Z,0.00
2018-05-31T03:15:09.914Z,0.00
2018-05-31T03:16:09.911Z,0.00
2018-05-31T03:17:09.907Z,0.00
2018-05-31T03:18:09.904Z,0.00
2018-05-31T03:19:09.900Z,0.00
2018-05-31T03:20:09.894Z,0.00
2018-05-31T03:21:09.893Z,0.00
2018-05-31T03:22:09.889Z,0.00
2018-05-31T03:23:09.883Z,0.00
2018-05-31T03:24:09.879Z,0.00
2018-05-31T03:25:09.877Z,0.00
2018-05-31T03:26:09.871Z,0.00
2018-05-31T03:27:09.868Z,0.00
2018-05-31T03:28:09.865Z,0.00
2018-05-31T03:29:09.862Z,0.00
2018-05-31T03:30:09.857Z,0.00
2018-05-31T03:31:09.855Z,0.00
2018-05-31T03:32:09.851Z,0.00
2018-05-31T03:33:09.849Z,0.00
2018-05-31T03:34:09.842Z,0.00
2018-05-31T03:35:09.837Z,0.00
2018-05-31T03:36:09.836Z,0.00
2018-05-31T03:37:09.830Z,0.00
2018-05-31T03:38:09.825Z,0.00
2018-05-31T03:39:09.821Z,0.00
2018-05-31T03:40:09.822Z,0.00
2018-05-31T03:41:09.820Z,0.00
2018-05-31T03:42:09.810Z,0.00
2018-05-31T03:43:09.806Z,0.00
2018-05-31T03:44:09.803Z,0.00
2018-05-31T03:45:09.800Z,0.00
2018-05-31T03:46:09.795Z,0.00
2018-05-31T03:47:09.792Z,0.00
2018-05-31T03:48:09.787Z,0.00
2018-05-31T03:49:09.784Z,0.00
2018-05-31T03:50:09.780Z,4.00
2018-05-31T03:51:09.777Z,4.00
2018-05-31T03:52:09.773Z,4.00
2018-05-31T03:53:09.769Z,4.00
2018-05-31T03:54:09.765Z,4.00
2018-05-31T03:55:09.758Z,4.00
2018-05-31T03:56:09.767Z,4.00
2018-05-31T03:57:09.754Z,4.00
2018-05-31T03:58:09.752Z,4.00
2018-05-31T03:59:09.745Z,4.00
2018-05-31T04:00:09.740Z,4.00
2018-05-31T04:01:09.740Z,4.00
2018-05-31T04:02:09.738Z,4.00
2018-05-31T04:03:09.729Z,4.00
2018-05-31T04:04:09.725Z,0.00
2018-05-31T04:05:09.723Z,0.00
2018-05-31T04:06:09.716Z,0.00
2018-05-31T04:07:09.717Z,0.00
2018-05-31T04:08:09.714Z,0.00
2018-05-31T04:09:09.708Z,0.00
2018-05-31T04:10:09.702Z,0.00
2018-05-31T04:11:09.701Z,0.00
2018-05-31T04:12:09.700Z,0.00
2018-05-31T04:13:09.692Z,0.00
2018-05-31T04:14:09.688Z,4.00
2018-05-31T04:15:09.683Z,4.00
2018-05-31T04:16:09.681Z,4.00
2018-05-31T04:17:09.675Z,4.00
2018-05-31T04:18:09.672Z,4.00
2018-05-31T04:19:09.670Z,4.00
2018-05-31T04:20:09.665Z,4.00
2018-05-31T04:21:09.660Z,4.00
2018-05-31T04:22:09.659Z,4.00
2018-05-31T04:23:09.653Z,4.00
2018-05-31T04:24:09.648Z,4.00
2018-05-31T04:25:09.645Z,0.00
2018-05-31T04:26:09.641Z,0.00
2018-05-31T04:27:09.639Z,4.00
2018-05-31T04:28:09.784Z,4.00
2018-05-31T04:29:09.628Z,4.00
2018-05-31T04:30:09.626Z,4.00
2018-05-31T04:31:09.621Z,4.00
2018-05-31T04:32:09.618Z,4.00
2018-05-31T04:33:09.616Z,4.00
2018-05-31T04:34:09.611Z,4.00
2018-05-31T04:35:09.607Z,0.00
2018-05-31T04:36:09.604Z,4.00
2018-05-31T04:37:09.601Z,4.00
2018-05-31T04:38:09.596Z,4.00
2018-05-31T04:39:09.591Z,4.00
2018-05-31T04:40:09.588Z,4.00
2018-05-31T04:41:09.586Z,4.00
2018-05-31T04:42:09.581Z,4.00
2018-05-31T04:43:09.581Z,4.00
2018-05-31T04:44:09.574Z,4.00
2018-05-31T04:45:09.570Z,4.00
2018-05-31T04:46:09.564Z,4.00
2018-05-31T04:47:09.562Z,4.00
2018-05-31T04:48:09.557Z,4.00
2018-05-31T04:49:09.554Z,0.00
2018-05-31T04:50:09.551Z,4.00
2018-05-31T04:51:09.546Z,4.00
2018-05-31T04:52:09.544Z,4.00
2018-05-31T04:53:09.538Z,4.00
2018-05-31T04:54:09.534Z,4.00
2018-05-31T04:55:09.532Z,4.00
2018-05-31T04:56:09.528Z,4.00
2018-05-31T04:57:09.533Z,4.00
2018-05-31T04:58:09.518Z,4.00
2018-05-31T04:59:09.516Z,4.00
2018-05-31T05:00:09.516Z,8.00
2018-05-31T05:01:09.508Z,8.00
2018-05-31T05:02:09.503Z,4.00
2018-05-31T05:03:09.499Z,4.00
2018-05-31T05:04:09.497Z,8.00
2018-05-31T05:05:09.493Z,8.00
2018-05-31T05:06:09.489Z,4.00
2018-05-31T05:07:09.492Z,4.00
2018-05-31T05:08:09.481Z,4.00
2018-05-31T05:09:09.483Z,4.00
2018-05-31T05:10:09.472Z,4.00
2018-05-31T05:11:09.469Z,0.00
2018-05-31T05:12:09.467Z,0.00
2018-05-31T05:13:09.463Z,4.00
2018-05-31T05:14:09.457Z,4.00
2018-05-31T05:15:09.453Z,4.00
2018-05-31T05:16:09.449Z,0.00
2018-05-31T05:17:09.446Z,0.00
2018-05-31T05:18:09.442Z,0.00
2018-05-31T05:19:09.440Z,0.00
2018-05-31T05:20:09.433Z,4.00
2018-05-31T05:21:09.431Z,4.00
2018-05-31T05:22:09.425Z,4.00
2018-05-31T05:23:09.426Z,4.00
2018-05-31T05:24:09.420Z,4.00
2018-05-31T05:25:09.417Z,4.00
2018-05-31T05:26:09.410Z,4.00
2018-05-31T05:27:09.407Z,4.00
2018-05-31T05:28:09.404Z,4.00
2018-05-31T05:29:09.402Z,4.00
2018-05-31T05:30:09.396Z,4.00
2018-05-31T05:31:09.392Z,4.00
2018-05-31T05:32:09.389Z,4.00
2018-05-31T05:33:09.474Z,4.00
2018-05-31T05:34:09.382Z,680.00
2018-05-31T05:35:09.376Z,764.00
2018-05-31T05:36:09.375Z,428.00
2018-05-31T05:37:09.374Z,400.00
2018-05-31T05:38:09.364Z,412.00
2018-05-31T05:39:09.360Z,420.00
2018-05-31T05:40:09.356Z,428.00
2018-05-31T05:41:09.352Z,432.00
2018-05-31T05:42:09.346Z,428.00
2018-05-31T05:43:09.344Z,428.00
2018-05-31T05:44:09.340Z,436.00
2018-05-31T05:45:09.332Z,448.00
2018-05-31T05:46:09.329Z,460.00
2018-05-31T05:47:09.326Z,472.00
2018-05-31T05:48:09.321Z,500.00
2018-05-31T05:49:09.312Z,512.00
2018-05-31T05:50:09.352Z,512.00
2018-05-31T05:51:09.308Z,520.00
2018-05-31T05:52:09.301Z,544.00
2018-05-31T05:53:09.299Z,616.00
2018-05-31T05:54:09.292Z,584.00
2018-05-31T05:55:09.288Z,608.00
2018-05-31T05:56:09.282Z,592.00
2018-05-31T05:57:09.278Z,640.00
2018-05-31T05:58:09.275Z,816.00
2018-05-31T05:59:09.266Z,636.00
2018-05-31T06:00:09.263Z,692.00
2018-05-31T06:01:09.260Z,684.00
2018-05-31T06:02:09.253Z,884.00
2018-05-31T06:03:09.248Z,756.00
2018-05-31T06:04:09.252Z,716.00
2018-05-31T06:05:09.240Z,724.00
2018-05-31T06:06:09.233Z,732.00
2018-05-31T06:07:09.230Z,932.00
2018-05-31T06:08:09.225Z,800.00
2018-05-31T06:09:09.221Z,688.00
2018-05-31T06:10:09.257Z,664.00
2018-05-31T06:11:09.209Z,720.00
2018-05-31T06:12:09.204Z,784.00
2018-05-31T06:13:09.199Z,644.00
2018-05-31T06:14:09.202Z,628.00
2018-05-31T06:15:09.189Z,616.00
2018-05-31T06:16:09.187Z,624.00
2018-05-31T06:17:09.192Z,632.00
2018-05-31T06:18:09.174Z,636.00
2018-05-31T06:19:09.179Z,676.00
2018-05-31T06:20:09.171Z,636.00
2018-05-31T06:21:09.162Z,636.00
2018-05-31T06:22:09.155Z,636.00
2018-05-31T06:23:09.150Z,644.00
2018-05-31T06:24:09.147Z,652.00
2018-05-31T06:25:09.144Z,656.00
2018-05-31T06:26:09.142Z,648.00
2018-05-31T06:27:09.131Z,648.00
2018-05-31T06:28:09.125Z,660.00
2018-05-31T06:29:09.121Z,680.00
2018-05-31T06:30:09.116Z,712.00
2018-05-31T06:31:09.116Z,764.00
2018-05-31T06:32:09.105Z,784.00
2018-05-31T06:33:09.103Z,800.00
2018-05-31T06:34:09.096Z,788.00
2018-05-31T06:35:09.095Z,768.00
2018-05-31T06:36:09.087Z,724.00
2018-05-31T06:37:09.129Z,692.00
2018-05-31T06:38:09.077Z,696.00
2018-05-31T06:39:09.071Z,728.00
2018-05-31T06:40:09.066Z,736.00
2018-05-31T06:41:09.096Z,788.00
2018-05-31T06:42:09.064Z,876.00
2018-05-31T06:43:09.056Z,924.00
2018-05-31T06:44:09.048Z,1068.00
2018-05-31T06:45:09.042Z,1032.00
2018-05-31T06:46:09.037Z,1124.00
2018-05-31T06:47:09.057Z,1148.00
2018-05-31T06:48:09.031Z,1056.00
2018-05-31T06:49:09.030Z,996.00
2018-05-31T06:50:09.017Z,880.00
2018-05-31T06:51:09.016Z,872.00
2018-05-31T06:52:09.011Z,956.00
2018-05-31T06:53:09.004Z,1044.00
2018-05-31T06:54:08.998Z,964.00
2018-05-31T06:55:08.993Z,1072.00
2018-05-31T06:56:08.989Z,1060.00
2018-05-31T06:57:08.983Z,1048.00
2018-05-31T06:58:08.978Z,1044.00
2018-05-31T06:59:08.974Z,1040.00
2018-05-31T07:00:08.969Z,1036.00
2018-05-31T07:01:08.964Z,1020.00
2018-05-31T07:02:08.960Z,1056.00
2018-05-31T07:03:08.955Z,1060.00
2018-05-31T07:04:08.949Z,1064.00
2018-05-31T07:05:08.945Z,1064.00
2018-05-31T07:06:08.939Z,1068.00
2018-05-31T07:07:08.936Z,1072.00
2018-05-31T07:08:08.932Z,1076.00
2018-05-31T07:09:08.925Z,1080.00
2018-05-31T07:10:08.920Z,1084.00
2018-05-31T07:11:08.918Z,1096.00
2018-05-31T07:12:08.913Z,1096.00
2018-05-31T07:13:08.906Z,1100.00
2018-05-31T07:14:08.901Z,1108.00
2018-05-31T07:15:08.897Z,1108.00
2018-05-31T07:16:08.988Z,1120.00
2018-05-31T07:17:08.887Z,1148.00
2018-05-31T07:18:08.882Z,1156.00
2018-05-31T07:19:08.877Z,1168.00
2018-05-31T07:20:08.873Z,1196.00
2018-05-31T07:21:08.870Z,1216.00
2018-05-31T07:22:08.863Z,1244.00
2018-05-31T07:23:08.859Z,1260.00
2018-05-31T07:24:08.856Z,1276.00
2018-05-31T07:25:08.852Z,1288.00
2018-05-31T07:26:08.845Z,1308.00
2018-05-31T07:27:08.843Z,1320.00
2018-05-31T07:28:08.836Z,1328.00
2018-05-31T07:29:08.831Z,1340.00
2018-05-31T07:30:08.826Z,1360.00
2018-05-31T07:31:08.822Z,1388.00
2018-05-31T07:32:08.818Z,1400.00
2018-05-31T07:33:08.813Z,1420.00
2018-05-31T07:34:08.806Z,1416.00
2018-05-31T07:35:08.802Z,1340.00
2018-05-31T07:36:08.824Z,1448.00
2018-05-31T07:37:08.794Z,1532.00
2018-05-31T07:38:08.787Z,1496.00
2018-05-31T07:39:08.785Z,1552.00
2018-05-31T07:40:08.780Z,1572.00
2018-05-31T07:41:08.791Z,1584.00
2018-05-31T07:42:08.770Z,1600.00
2018-05-31T07:43:08.770Z,1612.00
2018-05-31T07:44:08.762Z,1608.00
2018-05-31T07:45:08.761Z,1608.00
2018-05-31T07:46:08.753Z,1624.00
2018-05-31T07:47:08.747Z,1640.00
2018-05-31T07:48:08.743Z,1652.00
2018-05-31T07:49:08.740Z,1688.00
2018-05-31T07:50:09.638Z,1716.00
2018-05-31T07:51:08.731Z,1740.00
2018-05-31T07:52:08.724Z,1772.00
2018-05-31T07:53:08.720Z,1808.00
2018-05-31T07:54:08.715Z,1844.00
2018-05-31T07:55:08.710Z,1860.00
2018-05-31T07:56:08.709Z,1884.00
2018-05-31T07:57:08.706Z,1888.00
2018-05-31T07:58:08.728Z,1896.00
2018-05-31T07:59:08.694Z,1788.00
2018-05-31T08:00:08.692Z,980.00
2018-05-31T08:01:08.687Z,1000.00
2018-05-31T08:02:08.679Z,1000.00
2018-05-31T08:03:08.676Z,1528.00
2018-05-31T08:04:08.673Z,1880.00
2018-05-31T08:05:08.670Z,1944.00
2018-05-31T08:06:08.665Z,1528.00
2018-05-31T08:07:08.659Z,1636.00
2018-05-31T08:08:08.662Z,1280.00
2018-05-31T08:09:08.650Z,1448.00
2018-05-31T08:10:08.645Z,1984.00
2018-05-31T08:11:08.641Z,2096.00
2018-05-31T08:12:08.637Z,2020.00
2018-05-31T08:13:08.636Z,2092.00
2018-05-31T08:14:08.622Z,2124.00
2018-05-31T08:15:08.624Z,1624.00
2018-05-31T08:16:08.620Z,2208.00
2018-05-31T08:17:08.615Z,2212.00
2018-05-31T08:18:08.610Z,2248.00
2018-05-31T08:19:08.605Z,2272.00
2018-05-31T08:20:08.787Z,2280.00
2018-05-31T08:21:08.599Z,1956.00
2018-05-31T08:22:08.594Z,1932.00
2018-05-31T08:23:08.605Z,2300.00
2018-05-31T08:24:08.614Z,2328.00
2018-05-31T08:25:08.580Z,2332.00
2018-05-31T08:26:08.575Z,2328.00
2018-05-31T08:27:08.573Z,2312.00
2018-05-31T08:28:08.573Z,2300.00
2018-05-31T08:29:08.565Z,2304.00
2018-05-31T08:30:08.560Z,2304.00
2018-05-31T08:31:08.563Z,2308.00
2018-05-31T08:32:08.552Z,2316.00
2018-05-31T08:33:08.547Z,2316.00
2018-05-31T08:34:08.546Z,2308.00
2018-05-31T08:35:08.543Z,2292.00
2018-05-31T08:36:08.536Z,2288.00
2018-05-31T08:37:08.532Z,2296.00
2018-05-31T08:38:08.527Z,2312.00
2018-05-31T08:39:08.521Z,2340.00
2018-05-31T08:40:08.518Z,2372.00
2018-05-31T08:41:08.517Z,2412.00
2018-05-31T08:42:08.519Z,2464.00
2018-05-31T08:43:08.505Z,2520.00
2018-05-31T08:44:08.549Z,2536.00
2018-05-31T08:45:08.504Z,2644.00
2018-05-31T08:46:08.494Z,2696.00
2018-05-31T08:47:08.490Z,2628.00
2018-05-31T08:48:08.486Z,2132.00
2018-05-31T08:49:08.482Z,2360.00
2018-05-31T08:50:08.481Z,2248.00
2018-05-31T08:51:08.506Z,2528.00
2018-05-31T08:52:08.490Z,2632.00
2018-05-31T08:53:08.467Z,2248.00
2018-05-31T08:54:08.461Z,1920.00
2018-05-31T08:55:08.458Z,1776.00
2018-05-31T08:56:08.455Z,1932.00
2018-05-31T08:57:08.449Z,2040.00
2018-05-31T08:58:08.447Z,2168.00
2018-05-31T08:59:08.442Z,2188.00
2018-05-31T09:00:08.438Z,2244.00
2018-05-31T09:01:08.432Z,2248.00
2018-05-31T09:02:08.429Z,2324.00
2018-05-31T09:03:08.428Z,2392.00
2018-05-31T09:04:08.442Z,2200.00
2018-05-31T09:05:08.425Z,2128.00
2018-05-31T09:06:09.317Z,2312.00
2018-05-31T09:07:08.412Z,2392.00
2018-05-31T09:08:08.408Z,2292.00
2018-05-31T09:09:08.405Z,2648.00
2018-05-31T09:10:08.400Z,2644.00
2018-05-31T09:11:08.398Z,2564.00
2018-05-31T09:12:08.411Z,2344.00
2018-05-31T09:13:08.390Z,2008.00
2018-05-31T09:14:08.385Z,2068.00
2018-05-31T09:15:08.401Z,2100.00
2018-05-31T09:16:08.377Z,2252.00
2018-05-31T09:17:08.374Z,2276.00
2018-05-31T09:18:08.372Z,2356.00
2018-05-31T09:19:08.366Z,2572.00
2018-05-31T09:20:08.362Z,1956.00
2018-05-31T09:21:08.359Z,1968.00
2018-05-31T09:22:08.352Z,2152.00
2018-05-31T09:23:08.355Z,2964.00
2018-05-31T09:24:08.349Z,2660.00
2018-05-31T09:25:08.836Z,2460.00
2018-05-31T09:26:08.339Z,2192.00
2018-05-31T09:27:08.336Z,2264.00
2018-05-31T09:28:08.334Z,2336.00
2018-05-31T09:29:08.328Z,2908.00
2018-05-31T09:30:08.325Z,2108.00
2018-05-31T09:31:08.320Z,2164.00
2018-05-31T09:32:08.317Z,2088.00
2018-05-31T09:33:08.312Z,2100.00
2018-05-31T09:34:08.307Z,2144.00
2018-05-31T09:35:08.652Z,2432.00
2018-05-31T09:36:08.301Z,2884.00
2018-05-31T09:37:08.297Z,1988.00
2018-05-31T09:38:08.320Z,1896.00
2018-05-31T09:39:08.293Z,1788.00
2018-05-31T09:40:08.361Z,1824.00
2018-05-31T09:41:08.311Z,2084.00
2018-05-31T09:42:08.279Z,1792.00
2018-05-31T09:43:08.274Z,1768.00
2018-05-31T09:44:08.271Z,1880.00
2018-05-31T09:45:08.590Z,1832.00
2018-05-31T09:46:08.265Z,1768.00
2018-05-31T09:47:08.261Z,1860.00
2018-05-31T09:48:08.258Z,1780.00
2018-05-31T09:49:08.252Z,1700.00
2018-05-31T09:50:08.249Z,1600.00
2018-05-31T09:51:08.517Z,1604.00
2018-05-31T09:52:08.243Z,1588.00
2018-05-31T09:53:08.239Z,1628.00
2018-05-31T09:54:08.233Z,1660.00
2018-05-31T09:55:08.229Z,1652.00
2018-05-31T09:56:08.226Z,1632.00
2018-05-31T09:57:08.218Z,1640.00
2018-05-31T09:58:08.241Z,1680.00
2018-05-31T09:59:08.273Z,1792.00
2018-05-31T10:00:08.212Z,1688.00
2018-05-31T10:01:08.208Z,1668.00
2018-05-31T10:02:08.208Z,1708.00
2018-05-31T10:03:08.205Z,1720.00
2018-05-31T10:04:08.200Z,1676.00
2018-05-31T10:05:08.195Z,1876.00
2018-05-31T10:06:08.185Z,1684.00
2018-05-31T10:07:08.186Z,1652.00
2018-05-31T10:08:08.180Z,1684.00
2018-05-31T10:09:08.181Z,1868.00
2018-05-31T10:10:08.174Z,1772.00
2018-05-31T10:11:08.171Z,1928.00
2018-05-31T10:12:08.167Z,2012.00
2018-05-31T10:13:08.164Z,2648.00
2018-05-31T10:14:08.160Z,3352.00
2018-05-31T10:15:08.161Z,3444.00
2018-05-31T10:16:08.147Z,3352.00
2018-05-31T10:17:08.179Z,3252.00
2018-05-31T10:18:08.671Z,3268.00
2018-05-31T10:19:08.150Z,3188.00
2018-05-31T10:20:08.764Z,3168.00
2018-05-31T10:21:08.685Z,3164.00
2018-05-31T10:22:08.132Z,3124.00
2018-05-31T10:23:08.128Z,3156.00
2018-05-31T10:24:08.188Z,3168.00
2018-05-31T10:25:08.123Z,2776.00
2018-05-31T10:26:08.122Z,2472.00
2018-05-31T10:27:08.111Z,3008.00
2018-05-31T10:28:08.260Z,3040.00
2018-05-31T10:29:08.107Z,3080.00
2018-05-31T10:30:08.807Z,3096.00
2018-05-31T10:31:08.099Z,3104.00
2018-05-31T10:32:08.172Z,3132.00
2018-05-31T10:33:08.091Z,2712.00
2018-05-31T10:34:08.087Z,2924.00
2018-05-31T10:35:08.084Z,2992.00
2018-05-31T10:36:08.087Z,2936.00
2018-05-31T10:37:08.080Z,2940.00
2018-05-31T10:38:08.362Z,2904.00
2018-05-31T10:39:08.696Z,2916.00
2018-05-31T10:40:08.067Z,2928.00
2018-05-31T10:41:08.063Z,2768.00
2018-05-31T10:42:08.061Z,2044.00
2018-05-31T10:43:08.057Z,2304.00
2018-05-31T10:44:08.068Z,2032.00
2018-05-31T10:45:08.051Z,1648.00
2018-05-31T10:46:08.046Z,1924.00
2018-05-31T10:47:08.042Z,1640.00
2018-05-31T10:48:08.063Z,2676.00
2018-05-31T10:49:08.042Z,1708.00
2018-05-31T10:50:08.033Z,1632.00
2018-05-31T10:51:08.030Z,1592.00
2018-05-31T10:52:08.028Z,1456.00
2018-05-31T10:53:08.032Z,2624.00
2018-05-31T10:54:08.014Z,1540.00
2018-05-31T10:55:08.014Z,2428.00
2018-05-31T10:56:08.014Z,2220.00
2018-05-31T10:57:08.011Z,2708.00
2018-05-31T10:58:08.005Z,2264.00
2018-05-31T10:59:08.003Z,2712.00
2018-05-31T11:00:08.000Z,2680.00
2018-05-31T11:01:07.997Z,2568.00
2018-05-31T11:02:07.992Z,2648.00
2018-05-31T11:03:07.990Z,1592.00
2018-05-31T11:04:07.985Z,1392.00
2018-05-31T11:05:07.984Z,1356.00
2018-05-31T11:06:07.980Z,1336.00
2018-05-31T11:07:07.980Z,1400.00
2018-05-31T11:08:07.974Z,2148.00
2018-05-31T11:09:07.970Z,1736.00
2018-05-31T11:10:07.965Z,1704.00
2018-05-31T11:11:07.964Z,1856.00
2018-05-31T11:12:07.960Z,1416.00
2018-05-31T11:13:07.961Z,2184.00
2018-05-31T11:14:07.954Z,1756.00
2018-05-31T11:15:07.949Z,1452.00
2018-05-31T11:16:07.947Z,2180.00
2018-05-31T11:17:07.939Z,2236.00
2018-05-31T11:18:07.937Z,2272.00
2018-05-31T11:19:07.937Z,2228.00
2018-05-31T11:20:07.932Z,2204.00
2018-05-31T11:21:07.930Z,2176.00
2018-05-31T11:22:07.926Z,2152.00
2018-05-31T11:23:07.926Z,2140.00
2018-05-31T11:24:07.921Z,2132.00
2018-05-31T11:25:07.923Z,2136.00
2018-05-31T11:26:07.913Z,2148.00
2018-05-31T11:27:07.911Z,2136.00
2018-05-31T11:28:07.909Z,2124.00
2018-05-31T11:29:07.907Z,2124.00
2018-05-31T11:30:07.900Z,2076.00
2018-05-31T11:31:07.898Z,2080.00
2018-05-31T11:32:07.894Z,2048.00
2018-05-31T11:33:07.890Z,2020.00
2018-05-31T11:34:07.886Z,1992.00
2018-05-31T11:35:07.883Z,1544.00
2018-05-31T11:36:07.880Z,1552.00
2018-05-31T11:37:07.876Z,1288.00
2018-05-31T11:38:07.872Z,1684.00
2018-05-31T11:39:07.875Z,1956.00
2018-05-31T11:40:07.866Z,1968.00
2018-05-31T11:41:07.864Z,1988.00
2018-05-31T11:42:07.862Z,1804.00
2018-05-31T11:43:07.859Z,1304.00
2018-05-31T11:44:07.855Z,1992.00
2018-05-31T11:45:07.851Z,1524.00
2018-05-31T11:46:07.849Z,1880.00
2018-05-31T11:47:07.845Z,1788.00
2018-05-31T11:48:07.841Z,1168.00
2018-05-31T11:49:07.838Z,1164.00
2018-05-31T11:50:07.837Z,1976.00
2018-05-31T11:51:07.856Z,1916.00
2018-05-31T11:52:07.826Z,1904.00
2018-05-31T11:53:07.825Z,1852.00
2018-05-31T11:54:07.821Z,1772.00
2018-05-31T11:55:07.821Z,1732.00
2018-05-31T11:56:07.817Z,1740.00
2018-05-31T11:57:07.812Z,1716.00
2018-05-31T11:58:07.809Z,1468.00
2018-05-31T11:59:07.806Z,1020.00
2018-05-31T12:00:07.802Z,1068.00
2018-05-31T12:01:07.797Z,1680.00
2018-05-31T12:02:07.794Z,1632.00
2018-05-31T12:03:07.792Z,1632.00
2018-05-31T12:04:07.789Z,1640.00
2018-05-31T12:05:07.795Z,1656.00
2018-05-31T12:06:07.782Z,1668.00
2018-05-31T12:07:07.771Z,1516.00
2018-05-31T12:08:07.801Z,1148.00
2018-05-31T12:09:07.803Z,1184.00
2018-05-31T12:10:07.773Z,1588.00
2018-05-31T12:11:07.767Z,1572.00
2018-05-31T12:12:07.767Z,1460.00
2018-05-31T12:13:07.763Z,1552.00
2018-05-31T12:14:07.753Z,1516.00
2018-05-31T12:15:07.767Z,1516.00
2018-05-31T12:16:07.749Z,1504.00
2018-05-31T12:17:07.742Z,1504.00
2018-05-31T12:18:07.741Z,1416.00
2018-05-31T12:19:07.739Z,1476.00
2018-05-31T12:20:07.741Z,1356.00
2018-05-31T12:21:07.735Z,1460.00
2018-05-31T12:22:07.729Z,1444.00
2018-05-31T12:23:07.727Z,1416.00
2018-05-31T12:24:07.723Z,1332.00
2018-05-31T12:25:07.735Z,1308.00
2018-05-31T12:26:07.715Z,1252.00
2018-05-31T12:27:07.712Z,1208.00
2018-05-31T12:28:07.709Z,1152.00
2018-05-31T12:29:07.707Z,1304.00
2018-05-31T12:30:07.703Z,1200.00
2018-05-31T12:31:07.708Z,1196.00
2018-05-31T12:32:07.715Z,976.00
2018-05-31T12:33:07.694Z,916.00
2018-05-31T12:34:07.712Z,920.00
2018-05-31T12:35:07.686Z,944.00
2018-05-31T12:36:07.684Z,964.00
2018-05-31T12:37:07.679Z,1068.00
2018-05-31T12:38:07.676Z,928.00